sensor_id;sensor_type;location;lat;lon;timestamp;P1;durP1;ratioP1;P2;durP2;ratioP2
36789;SDS011;22740;52.182;8.780;2024-02-23T00:03:53;57.13;;;54.17;;
36789;SDS011;22740;52.182;8.780;2024-02-23T00:09:56;53.00;;;50.17;;
36789;SDS011;22740;52.182;8.780;2024-02-23T00:15:58;50.60;;;48.10;;
36789;SDS011;22740;52.182;8.780;2024-02-23T00:22:00;50.55;;;48.13;;
36789;SDS011;22740;52.182;8.780;2024-02-23T00:28:06;51.95;;;49.35;;
36789;SDS011;22740;52.182;8.780;2024-02-23T00:34:08;51.50;;;48.88;;
36789;SDS011;22740;52.182;8.780;2024-02-23T00:40:12;59.05;;;56.25;;
36789;SDS011;22740;52.182;8.780;2024-02-23T00:46:18;31.02;;;29.38;;
36789;SDS011;22740;52.182;8.780;2024-02-23T00:52:20;20.75;;;19.65;;
36789;SDS011;22740;52.182;8.780;2024-02-23T00:58:23;21.58;;;20.50;;
36789;SDS011;22740;52.182;8.780;2024-02-23T01:04:25;18.13;;;17.20;;
36789;SDS011;22740;52.182;8.780;2024-02-23T01:10:27;12.65;;;11.95;;
36789;SDS011;22740;52.182;8.780;2024-02-23T01:16:29;13.85;;;13.05;;
36789;SDS011;22740;52.182;8.780;2024-02-23T01:22:34;15.00;;;14.30;;
36789;SDS011;22740;52.182;8.780;2024-02-23T01:28:36;21.02;;;20.02;;
36789;SDS011;22740;52.182;8.780;2024-02-23T01:34:37;35.67;;;33.90;;
36789;SDS011;22740;52.182;8.780;2024-02-23T01:40:39;38.05;;;36.25;;
36789;SDS011;22740;52.182;8.780;2024-02-23T01:46:41;40.50;;;38.53;;
36789;SDS011;22740;52.182;8.780;2024-02-23T01:52:43;38.05;;;36.22;;
36789;SDS011;22740;52.182;8.780;2024-02-23T01:58:45;38.88;;;36.97;;
36789;SDS011;22740;52.182;8.780;2024-02-23T02:04:48;45.05;;;42.85;;
36789;SDS011;22740;52.182;8.780;2024-02-23T02:10:50;42.08;;;40.08;;
36789;SDS011;22740;52.182;8.780;2024-02-23T02:16:51;33.38;;;31.58;;
36789;SDS011;22740;52.182;8.780;2024-02-23T02:22:53;31.88;;;30.27;;
36789;SDS011;22740;52.182;8.780;2024-02-23T02:28:55;63.42;;;60.28;;
36789;SDS011;22740;52.182;8.780;2024-02-23T02:34:58;62.00;;;58.92;;
36789;SDS011;22740;52.182;8.780;2024-02-23T02:41:00;61.95;;;58.85;;
36789;SDS011;22740;52.182;8.780;2024-02-23T02:47:02;69.60;;;66.13;;
36789;SDS011;22740;52.182;8.780;2024-02-23T02:53:04;71.65;;;68.10;;
36789;SDS011;22740;52.182;8.780;2024-02-23T02:59:06;70.80;;;67.20;;
36789;SDS011;22740;52.182;8.780;2024-02-23T03:05:08;68.18;;;64.78;;
36789;SDS011;22740;52.182;8.780;2024-02-23T03:11:10;68.78;;;65.30;;
36789;SDS011;22740;52.182;8.780;2024-02-23T03:17:14;67.50;;;64.13;;
36789;SDS011;22740;52.182;8.780;2024-02-23T03:23:16;70.07;;;66.57;;
36789;SDS011;22740;52.182;8.780;2024-02-23T03:29:18;70.22;;;66.70;;
36789;SDS011;22740;52.182;8.780;2024-02-23T03:35:20;62.90;;;59.55;;
36789;SDS011;22740;52.182;8.780;2024-02-23T03:41:22;67.57;;;64.18;;
36789;SDS011;22740;52.182;8.780;2024-02-23T03:47:24;73.97;;;70.38;;
36789;SDS011;22740;52.182;8.780;2024-02-23T03:53:26;69.47;;;65.95;;
36789;SDS011;22740;52.182;8.780;2024-02-23T03:59:28;71.05;;;67.57;;
36789;SDS011;22740;52.182;8.780;2024-02-23T04:05:30;69.63;;;65.97;;
36789;SDS011;22740;52.182;8.780;2024-02-23T04:11:32;69.82;;;66.43;;
36789;SDS011;22740;52.182;8.780;2024-02-23T04:17:34;62.75;;;59.63;;
36789;SDS011;22740;52.182;8.780;2024-02-23T04:23:36;69.72;;;66.22;;
36789;SDS011;22740;52.182;8.780;2024-02-23T04:29:38;70.38;;;66.88;;
36789;SDS011;22740;52.182;8.780;2024-02-23T04:35:40;64.03;;;60.78;;
36789;SDS011;22740;52.182;8.780;2024-02-23T04:41:41;68.95;;;65.53;;
36789;SDS011;22740;52.182;8.780;2024-02-23T04:47:43;66.85;;;63.55;;
36789;SDS011;22740;52.182;8.780;2024-02-23T04:59:50;63.78;;;60.53;;
36789;SDS011;22740;52.182;8.780;2024-02-23T05:05:52;63.95;;;60.75;;
36789;SDS011;22740;52.182;8.780;2024-02-23T05:11:55;54.35;;;51.58;;
36789;SDS011;22740;52.182;8.780;2024-02-23T05:17:57;63.72;;;60.47;;
36789;SDS011;22740;52.182;8.780;2024-02-23T05:23:59;61.72;;;58.35;;
36789;SDS011;22740;52.182;8.780;2024-02-23T05:30:02;59.17;;;56.08;;
36789;SDS011;22740;52.182;8.780;2024-02-23T05:36:04;58.13;;;54.97;;
36789;SDS011;22740;52.182;8.780;2024-02-23T05:42:06;58.83;;;55.75;;
36789;SDS011;22740;52.182;8.780;2024-02-23T05:48:08;55.78;;;52.88;;
36789;SDS011;22740;52.182;8.780;2024-02-23T05:54:10;58.05;;;55.05;;
36789;SDS011;22740;52.182;8.780;2024-02-23T06:00:12;55.05;;;52.35;;
36789;SDS011;22740;52.182;8.780;2024-02-23T06:12:19;51.47;;;48.88;;
36789;SDS011;22740;52.182;8.780;2024-02-23T06:18:20;51.80;;;48.97;;
36789;SDS011;22740;52.182;8.780;2024-02-23T06:24:22;50.03;;;47.33;;
36789;SDS011;22740;52.182;8.780;2024-02-23T06:30:24;48.45;;;45.95;;
36789;SDS011;22740;52.182;8.780;2024-02-23T06:36:26;47.42;;;45.03;;
36789;SDS011;22740;52.182;8.780;2024-02-23T06:42:28;48.25;;;45.72;;
36789;SDS011;22740;52.182;8.780;2024-02-23T06:48:30;50.03;;;47.53;;
36789;SDS011;22740;52.182;8.780;2024-02-23T06:54:33;50.28;;;47.70;;
36789;SDS011;22740;52.182;8.780;2024-02-23T07:00:35;46.25;;;43.70;;
36789;SDS011;22740;52.182;8.780;2024-02-23T07:06:37;45.97;;;43.63;;
36789;SDS011;22740;52.182;8.780;2024-02-23T07:12:39;49.13;;;46.53;;
36789;SDS011;22740;52.182;8.780;2024-02-23T07:18:41;48.22;;;45.78;;
36789;SDS011;22740;52.182;8.780;2024-02-23T07:24:43;48.35;;;46.03;;
36789;SDS011;22740;52.182;8.780;2024-02-23T07:30:45;49.70;;;46.95;;
36789;SDS011;22740;52.182;8.780;2024-02-23T07:36:48;44.85;;;42.45;;
36789;SDS011;22740;52.182;8.780;2024-02-23T07:42:53;48.58;;;45.90;;
36789;SDS011;22740;52.182;8.780;2024-02-23T07:48:55;40.53;;;38.50;;
36789;SDS011;22740;52.182;8.780;2024-02-23T07:54:58;43.17;;;40.97;;
36789;SDS011;22740;52.182;8.780;2024-02-23T08:01:01;42.67;;;40.57;;
36789;SDS011;22740;52.182;8.780;2024-02-23T08:07:04;39.60;;;37.33;;
36789;SDS011;22740;52.182;8.780;2024-02-23T08:13:08;40.55;;;38.45;;
36789;SDS011;22740;52.182;8.780;2024-02-23T08:19:12;37.60;;;35.60;;
36789;SDS011;22740;52.182;8.780;2024-02-23T08:25:14;34.65;;;32.83;;
36789;SDS011;22740;52.182;8.780;2024-02-23T08:31:16;35.75;;;33.85;;
36789;SDS011;22740;52.182;8.780;2024-02-23T08:37:18;35.08;;;33.38;;
36789;SDS011;22740;52.182;8.780;2024-02-23T08:43:20;35.10;;;32.95;;
36789;SDS011;22740;52.182;8.780;2024-02-23T08:49:22;33.20;;;31.58;;
36789;SDS011;22740;52.182;8.780;2024-02-23T08:55:24;31.27;;;29.60;;
36789;SDS011;22740;52.182;8.780;2024-02-23T09:01:26;31.20;;;29.33;;
36789;SDS011;22740;52.182;8.780;2024-02-23T09:07:28;33.63;;;31.85;;
36789;SDS011;22740;52.182;8.780;2024-02-23T09:13:32;35.42;;;33.63;;
36789;SDS011;22740;52.182;8.780;2024-02-23T09:19:34;34.92;;;33.20;;
36789;SDS011;22740;52.182;8.780;2024-02-23T09:25:36;38.08;;;36.08;;
36789;SDS011;22740;52.182;8.780;2024-02-23T09:31:37;35.63;;;33.83;;
36789;SDS011;22740;52.182;8.780;2024-02-23T09:37:39;34.58;;;32.70;;
36789;SDS011;22740;52.182;8.780;2024-02-23T09:43:41;32.13;;;30.48;;
36789;SDS011;22740;52.182;8.780;2024-02-23T09:49:46;33.57;;;31.50;;
36789;SDS011;22740;52.182;8.780;2024-02-23T09:55:51;33.85;;;32.08;;
36789;SDS011;22740;52.182;8.780;2024-02-23T10:01:54;32.22;;;30.63;;
36789;SDS011;22740;52.182;8.780;2024-02-23T10:07:56;33.67;;;31.90;;
36789;SDS011;22740;52.182;8.780;2024-02-23T10:13:59;32.25;;;30.45;;
36789;SDS011;22740;52.182;8.780;2024-02-23T10:20:01;25.95;;;24.40;;
36789;SDS011;22740;52.182;8.780;2024-02-23T10:26:06;27.13;;;25.35;;
36789;SDS011;22740;52.182;8.780;2024-02-23T10:32:10;22.13;;;20.65;;
36789;SDS011;22740;52.182;8.780;2024-02-23T10:38:16;25.27;;;23.98;;
36789;SDS011;22740;52.182;8.780;2024-02-23T10:44:21;23.92;;;22.63;;
36789;SDS011;22740;52.182;8.780;2024-02-23T10:50:23;23.52;;;22.15;;
36789;SDS011;22740;52.182;8.780;2024-02-23T10:56:27;21.13;;;20.02;;
36789;SDS011;22740;52.182;8.780;2024-02-23T11:02:30;19.50;;;18.40;;
36789;SDS011;22740;52.182;8.780;2024-02-23T11:08:36;19.55;;;18.25;;
36789;SDS011;22740;52.182;8.780;2024-02-23T11:14:38;19.90;;;18.80;;
36789;SDS011;22740;52.182;8.780;2024-02-23T11:20:40;19.15;;;17.75;;
36789;SDS011;22740;52.182;8.780;2024-02-23T11:26:44;17.33;;;16.33;;
36789;SDS011;22740;52.182;8.780;2024-02-23T11:32:50;16.17;;;15.27;;
36789;SDS011;22740;52.182;8.780;2024-02-23T11:39:00;16.42;;;15.48;;
36789;SDS011;22740;52.182;8.780;2024-02-23T11:45:02;16.08;;;15.07;;
36789;SDS011;22740;52.182;8.780;2024-02-23T11:51:04;17.08;;;16.08;;
36789;SDS011;22740;52.182;8.780;2024-02-23T11:57:06;16.38;;;15.02;;
36789;SDS011;22740;52.182;8.780;2024-02-23T12:03:08;18.02;;;16.77;;
36789;SDS011;22740;52.182;8.780;2024-02-23T12:09:11;18.50;;;17.40;;
36789;SDS011;22740;52.182;8.780;2024-02-23T12:15:13;20.70;;;19.50;;
36789;SDS011;22740;52.182;8.780;2024-02-23T12:21:15;19.00;;;17.73;;
36789;SDS011;22740;52.182;8.780;2024-02-23T12:27:19;19.25;;;18.15;;
36789;SDS011;22740;52.182;8.780;2024-02-23T12:33:22;17.53;;;16.50;;
36789;SDS011;22740;52.182;8.780;2024-02-23T12:39:24;16.17;;;15.18;;
36789;SDS011;22740;52.182;8.780;2024-02-23T12:45:27;13.55;;;12.75;;
36789;SDS011;22740;52.182;8.780;2024-02-23T12:51:29;10.18;;;9.57;;
36789;SDS011;22740;52.182;8.780;2024-02-23T12:57:31;10.73;;;10.13;;
36789;SDS011;22740;52.182;8.780;2024-02-23T13:03:33;14.50;;;13.60;;
36789;SDS011;22740;52.182;8.780;2024-02-23T13:09:36;13.75;;;12.95;;
36789;SDS011;22740;52.182;8.780;2024-02-23T13:15:38;15.88;;;14.90;;
36789;SDS011;22740;52.182;8.780;2024-02-23T13:21:40;13.60;;;12.75;;
36789;SDS011;22740;52.182;8.780;2024-02-23T13:27:41;11.82;;;11.13;;
36789;SDS011;22740;52.182;8.780;2024-02-23T13:33:43;12.80;;;11.90;;
36789;SDS011;22740;52.182;8.780;2024-02-23T13:39:46;15.10;;;14.20;;
36789;SDS011;22740;52.182;8.780;2024-02-23T13:45:50;14.45;;;13.27;;
36789;SDS011;22740;52.182;8.780;2024-02-23T13:51:54;13.70;;;12.80;;
36789;SDS011;22740;52.182;8.780;2024-02-23T13:57:56;11.68;;;11.07;;
36789;SDS011;22740;52.182;8.780;2024-02-23T14:03:58;13.25;;;12.55;;
36789;SDS011;22740;52.182;8.780;2024-02-23T14:10:00;17.60;;;16.70;;
36789;SDS011;22740;52.182;8.780;2024-02-23T14:16:03;13.60;;;12.80;;
36789;SDS011;22740;52.182;8.780;2024-02-23T14:22:06;12.90;;;12.15;;
36789;SDS011;22740;52.182;8.780;2024-02-23T14:28:08;16.45;;;15.55;;
36789;SDS011;22740;52.182;8.780;2024-02-23T14:34:11;18.98;;;17.90;;
36789;SDS011;22740;52.182;8.780;2024-02-23T14:40:13;23.70;;;22.40;;
36789;SDS011;22740;52.182;8.780;2024-02-23T14:46:16;26.60;;;25.30;;
36789;SDS011;22740;52.182;8.780;2024-02-23T14:52:18;20.20;;;19.00;;
36789;SDS011;22740;52.182;8.780;2024-02-23T14:58:19;20.20;;;19.08;;
36789;SDS011;22740;52.182;8.780;2024-02-23T15:04:21;19.75;;;18.65;;
36789;SDS011;22740;52.182;8.780;2024-02-23T15:10:23;20.42;;;18.95;;
36789;SDS011;22740;52.182;8.780;2024-02-23T15:16:25;18.45;;;17.35;;
36789;SDS011;22740;52.182;8.780;2024-02-23T15:22:28;20.30;;;19.20;;
36789;SDS011;22740;52.182;8.780;2024-02-23T15:28:31;21.83;;;20.73;;
36789;SDS011;22740;52.182;8.780;2024-02-23T15:34:32;21.75;;;20.48;;
36789;SDS011;22740;52.182;8.780;2024-02-23T15:40:34;21.05;;;19.95;;
36789;SDS011;22740;52.182;8.780;2024-02-23T15:46:36;18.88;;;17.88;;
36789;SDS011;22740;52.182;8.780;2024-02-23T15:52:38;18.40;;;17.30;;
36789;SDS011;22740;52.182;8.780;2024-02-23T15:58:41;19.13;;;18.13;;
36789;SDS011;22740;52.182;8.780;2024-02-23T16:04:42;20.80;;;19.63;;
36789;SDS011;22740;52.182;8.780;2024-02-23T16:10:44;20.92;;;19.75;;
36789;SDS011;22740;52.182;8.780;2024-02-23T16:16:48;19.90;;;18.67;;
36789;SDS011;22740;52.182;8.780;2024-02-23T16:22:51;19.83;;;18.83;;
36789;SDS011;22740;52.182;8.780;2024-02-23T16:28:53;21.00;;;19.70;;
36789;SDS011;22740;52.182;8.780;2024-02-23T16:34:57;22.10;;;20.60;;
36789;SDS011;22740;52.182;8.780;2024-02-23T16:40:59;20.67;;;19.60;;
36789;SDS011;22740;52.182;8.780;2024-02-23T16:47:01;20.40;;;19.30;;
36789;SDS011;22740;52.182;8.780;2024-02-23T16:53:04;18.42;;;17.27;;
36789;SDS011;22740;52.182;8.780;2024-02-23T16:59:06;17.70;;;16.67;;
36789;SDS011;22740;52.182;8.780;2024-02-23T17:05:08;17.25;;;16.20;;
36789;SDS011;22740;52.182;8.780;2024-02-23T17:11:10;18.63;;;17.63;;
36789;SDS011;22740;52.182;8.780;2024-02-23T17:17:12;18.90;;;17.90;;
36789;SDS011;22740;52.182;8.780;2024-02-23T17:23:14;18.83;;;17.77;;
36789;SDS011;22740;52.182;8.780;2024-02-23T17:29:16;19.35;;;18.25;;
36789;SDS011;22740;52.182;8.780;2024-02-23T17:35:18;22.20;;;20.73;;
36789;SDS011;22740;52.182;8.780;2024-02-23T17:41:20;20.10;;;19.08;;
36789;SDS011;22740;52.182;8.780;2024-02-23T17:47:25;19.95;;;18.75;;
36789;SDS011;22740;52.182;8.780;2024-02-23T17:53:27;20.92;;;19.73;;
36789;SDS011;22740;52.182;8.780;2024-02-23T17:59:29;20.27;;;19.17;;
36789;SDS011;22740;52.182;8.780;2024-02-23T18:05:31;22.30;;;21.00;;
36789;SDS011;22740;52.182;8.780;2024-02-23T18:11:33;22.27;;;20.70;;
36789;SDS011;22740;52.182;8.780;2024-02-23T18:17:35;20.25;;;19.25;;
36789;SDS011;22740;52.182;8.780;2024-02-23T18:23:37;20.60;;;19.30;;
36789;SDS011;22740;52.182;8.780;2024-02-23T18:29:40;19.33;;;18.23;;
36789;SDS011;22740;52.182;8.780;2024-02-23T18:35:42;20.48;;;19.27;;
36789;SDS011;22740;52.182;8.780;2024-02-23T18:41:44;19.40;;;18.40;;
36789;SDS011;22740;52.182;8.780;2024-02-23T18:47:46;20.15;;;18.83;;
36789;SDS011;22740;52.182;8.780;2024-02-23T18:53:48;20.15;;;18.88;;
36789;SDS011;22740;52.182;8.780;2024-02-23T18:59:50;17.70;;;16.65;;
36789;SDS011;22740;52.182;8.780;2024-02-23T19:05:52;17.60;;;16.63;;
36789;SDS011;22740;52.182;8.780;2024-02-23T19:11:55;19.05;;;17.95;;
36789;SDS011;22740;52.182;8.780;2024-02-23T19:17:57;18.77;;;17.58;;
36789;SDS011;22740;52.182;8.780;2024-02-23T19:23:59;19.55;;;18.27;;
36789;SDS011;22740;52.182;8.780;2024-02-23T19:30:01;20.00;;;18.80;;
36789;SDS011;22740;52.182;8.780;2024-02-23T19:36:04;18.90;;;17.88;;
36789;SDS011;22740;52.182;8.780;2024-02-23T19:42:10;16.75;;;15.85;;
36789;SDS011;22740;52.182;8.780;2024-02-23T19:48:14;18.55;;;17.38;;
36789;SDS011;22740;52.182;8.780;2024-02-23T19:54:16;18.23;;;17.23;;
36789;SDS011;22740;52.182;8.780;2024-02-23T20:00:18;18.55;;;17.50;;
36789;SDS011;22740;52.182;8.780;2024-02-23T20:06:19;16.83;;;15.63;;
36789;SDS011;22740;52.182;8.780;2024-02-23T20:12:21;17.30;;;15.95;;
36789;SDS011;22740;52.182;8.780;2024-02-23T20:18:24;17.13;;;16.08;;
36789;SDS011;22740;52.182;8.780;2024-02-23T20:24:26;18.00;;;16.90;;
36789;SDS011;22740;52.182;8.780;2024-02-23T20:30:29;15.85;;;14.93;;
36789;SDS011;22740;52.182;8.780;2024-02-23T20:36:30;15.57;;;14.65;;
36789;SDS011;22740;52.182;8.780;2024-02-23T20:42:32;14.25;;;13.25;;
36789;SDS011;22740;52.182;8.780;2024-02-23T20:48:34;15.45;;;14.40;;
36789;SDS011;22740;52.182;8.780;2024-02-23T20:54:36;15.38;;;14.38;;
36789;SDS011;22740;52.182;8.780;2024-02-23T21:00:38;15.02;;;14.13;;
36789;SDS011;22740;52.182;8.780;2024-02-23T21:06:40;14.05;;;13.25;;
36789;SDS011;22740;52.182;8.780;2024-02-23T21:12:42;15.77;;;14.77;;
36789;SDS011;22740;52.182;8.780;2024-02-23T21:18:44;16.42;;;15.27;;
36789;SDS011;22740;52.182;8.780;2024-02-23T21:24:46;16.30;;;14.98;;
36789;SDS011;22740;52.182;8.780;2024-02-23T21:30:48;16.02;;;15.13;;
36789;SDS011;22740;52.182;8.780;2024-02-23T21:36:54;15.40;;;14.23;;
36789;SDS011;22740;52.182;8.780;2024-02-23T21:43:00;15.50;;;14.68;;
36789;SDS011;22740;52.182;8.780;2024-02-23T21:49:02;16.35;;;15.20;;
36789;SDS011;22740;52.182;8.780;2024-02-23T21:55:04;14.73;;;13.93;;
36789;SDS011;22740;52.182;8.780;2024-02-23T22:01:07;15.35;;;14.23;;
36789;SDS011;22740;52.182;8.780;2024-02-23T22:07:09;13.50;;;12.48;;
36789;SDS011;22740;52.182;8.780;2024-02-23T22:13:14;14.23;;;13.25;;
36789;SDS011;22740;52.182;8.780;2024-02-23T22:19:16;12.32;;;11.52;;
36789;SDS011;22740;52.182;8.780;2024-02-23T22:25:18;11.88;;;10.75;;
36789;SDS011;22740;52.182;8.780;2024-02-23T22:31:20;11.05;;;10.35;;
36789;SDS011;22740;52.182;8.780;2024-02-23T22:37:21;11.65;;;10.57;;
36789;SDS011;22740;52.182;8.780;2024-02-23T22:43:23;11.05;;;10.35;;
36789;SDS011;22740;52.182;8.780;2024-02-23T22:49:27;11.35;;;10.50;;
36789;SDS011;22740;52.182;8.780;2024-02-23T22:55:29;10.00;;;9.30;;
36789;SDS011;22740;52.182;8.780;2024-02-23T23:01:31;12.32;;;10.07;;
36789;SDS011;22740;52.182;8.780;2024-02-23T23:07:32;9.70;;;8.88;;
36789;SDS011;22740;52.182;8.780;2024-02-23T23:19:39;11.10;;;8.93;;
36789;SDS011;22740;52.182;8.780;2024-02-23T23:25:40;9.70;;;8.90;;
36789;SDS011;22740;52.182;8.780;2024-02-23T23:31:42;9.43;;;8.77;;
36789;SDS011;22740;52.182;8.780;2024-02-23T23:37:44;9.45;;;8.75;;
36789;SDS011;22740;52.182;8.780;2024-02-23T23:43:46;9.82;;;9.23;;
36789;SDS011;22740;52.182;8.780;2024-02-23T23:49:49;10.25;;;9.65;;
36789;SDS011;22740;52.182;8.780;2024-02-23T23:55:51;10.00;;;9.25;;
